Архив погоды в Осташкове

Метеограмма Осташков
Среда, 17 Октября
Время местн. Темп Ветер Видим Явления Облачность нижн/средн/верх Атм. давл. Влжн Точка росы ВНГО R Сост. почвы Tg s
Напр Скр Прв ур.ст ур.м изм
09:00 +3.4° Ю 1 - 4 км дымка ясно 750 770 +0.3 100% +3.4° более 2.5 км 0 Влажная (без луж) - -
06:00 +3.4° штиль 0 - 4 км дымка ясно 749 769 +0.4 99% +3.3° более 2.5 км - - - -
03:00 +7.6° З,Ю-З 2 - 10 км - ясно 749 769 0 82% +4.8° более 2.5 км - - - -
00:00 +8.5° З,Ю-З 2 - 10 км - ясно 749 768 +0.4 80% +5.2° более 2.5 км - - - -
Вторник, 16 Октября
Время местн. Темп Ветер Видим Явления Облачность нижн/средн/верх Атм. давл. Влжн Точка росы ВНГО R Сост. почвы Tg s
Напр Скр Прв ур.ст ур.м изм
21:00 +10.6° Ю,Ю-З 1 - 10 км - ясно 748 768 +0.1 71% +5.5° более 2.5 км 0 - - -
18:00 +13.7° Ю 1 - 10 км - ясно 748 768 -0.2 58% +5.5° более 2.5 км - - - -
15:00 +18.4° Ю-З 3 - 10 км - ясно 749 768 -0.5 43% +5.6° более 2.5 км - - - -
12:00 +14.2° Ю,Ю-З 2 - 10 км - переменная облачность 749 768 -0.4 57% +5.7° более 2.5 км - - - -
09:00 +7° Ю,Ю-З 2 - 4 км дымка переменная облачность 749 769 -0.4 86% +4.9° более 2.5 км 0 Влажная (без луж) - -
06:00 +2° Ю 1 - 4 км дымка ясно 750 770 -0.8 100% +2° более 2.5 км - - - -
03:00 +2.3° Ю 1 - 4 км дымка ясно 751 771 -0.2 99% +2.2° более 2.5 км - - - -
00:00 +5.2° штиль 0 - 4 км дымка ясно 751 771 +0.2 94% +4.3° более 2.5 км - - - -
Понедельник, 15 Октября
Время местн. Темп Ветер Видим Явления Облачность нижн/средн/верх Атм. давл. Влжн Точка росы ВНГО R Сост. почвы Tg s
Напр Скр Прв ур.ст ур.м изм
21:00 +7.8° Ю 1 - 4 км дымка переменная облачность 751 770 -0.5 87% +5.8° - 0 - - -
18:00 +12.3° Ю 1 - 10 км - переменная облачность 751 770 -0.5 68% +6.6° - - - - -
15:00 +17.4° Ю 1 - 10 км небо без изменений {туман} ясно 751 771 -0.5 57% +8.7° более 2.5 км - - - -
12:00 +15° Ю-З 2 - 10 км небо без изменений {туман} ясно 752 771 +0.1 72% +10° более 2.5 км - - - -
09:00 +3° штиль 0 - 0.5 км туман, небо видно ясно 752 772 +0.1 100% +3° более 2.5 км 0 Влажная (без луж) - -
06:00 +1.5° штиль 0 - 0.5 км туман усиливается, небо видно ясно 752 772 -0.1 100% +1.5° более 2.5 км - - - -
03:00 +2.7° штиль 0 - 4 км дымка ясно 752 772 0 100% +2.7° более 2.5 км - - - -
00:00 +6.6° штиль 0 - 4 км дымка ясно 752 772 +0.2 100% +6.6° более 2.5 км - - - -
Воскресенье, 14 Октября
Время местн. Темп Ветер Видим Явления Облачность нижн/средн/верх Атм. давл. Влжн Точка росы ВНГО R Сост. почвы Tg s
Напр Скр Прв ур.ст ур.м изм
21:00 +9° Ю,Ю-З 1 - 4 км дымка ясно 752 771 +0.1 97% +8.6° более 2.5 км 0 - - -
18:00 +13.8° З,Ю-З 1 - 10 км - переменная облачность 752 771 -0.2 78% +10.1° более 2.5 км - - - -
15:00 +18.2° С,С-З 1 - 10 км - переменная облачность 752 771 -0.5 64% +11.4° более 2.5 км - - - -
12:00 +14.9° З,С-З 1 - 10 км - переменная облачность 753 772 +0.3 79% +11.3° более 2.5 км - - - -
09:00 +9.3° Ю-З 1 - 4 км дымка переменная облачность 752 772 +0.2 99% +9.2° более 2.5 км 0 Влажная (без луж) - -
06:00 +7.8° Ю-З 1 - 4 км дымка ясно 752 772 -0.1 100% +7.8° более 2.5 км - - - -